Time;durP1;ratioP1;P1;durP2;ratioP2;P2;SDS_P1;SDS_P2;PMS_P1;PMS_P2;Temp;Humidity;BMP_temperature;BMP_pressure;BME280_temperature;BME280_humidity;BME280_pressure;Samples;Min_cycle;Max_cycle;Signal;HPM_P1;HPM_P2
2021/12/07 00:00:52;;;;;;;44.93;21.00;;;;;;;-2.30;85.89;100035.33;1753658;81;27450;-73
2021/12/07 00:03:20;;;;;;;52.88;21.75;;;;;;;-2.30;85.99;100042.45;1753561;81;25454;-73
2021/12/07 00:05:48;;;;;;;51.58;23.12;;;;;;;-2.32;85.93;100033.41;1753656;81;25533;-73
2021/12/07 00:08:15;;;;;;;50.30;23.10;;;;;;;-2.31;86.01;100033.70;1732547;81;25667;-73
2021/12/07 00:10:42;;;;;;;48.80;21.82;;;;;;;-2.31;86.03;100033.70;1761485;81;25560;-72
2021/12/07 00:13:10;;;;;;;48.92;22.27;;;;;;;-2.32;86.04;100039.23;1732568;81;27780;-73
2021/12/07 00:15:41;;;;;;;43.38;19.62;;;;;;;-2.32;86.00;100046.65;1761350;81;25567;-72
2021/12/07 00:18:10;;;;;;;46.55;21.23;;;;;;;-2.32;86.00;100045.32;1761501;81;25465;-72
2021/12/07 00:20:37;;;;;;;47.65;21.62;;;;;;;-2.34;85.81;100045.28;1761375;81;25491;-73
2021/12/07 00:23:08;;;;;;;54.00;24.27;;;;;;;-2.36;85.83;100048.68;1761470;81;25547;-73
2021/12/07 00:25:36;;;;;;;51.25;23.65;;;;;;;-2.36;85.96;100052.66;1761498;81;27381;-73
2021/12/07 00:28:05;;;;;;;51.33;24.57;;;;;;;-2.35;86.04;100060.38;1761349;81;25603;-73
2021/12/07 00:30:34;;;;;;;46.48;22.48;;;;;;;-2.34;86.03;100065.15;1761524;81;25560;-73
2021/12/07 00:33:13;;;;;;;41.77;20.88;;;;;;;-2.35;86.02;100063.52;1732582;81;25612;-73
2021/12/07 00:35:34;;;;;;;48.33;22.58;;;;;;;-2.36;85.99;100061.40;1757927;80;25673;-73
2021/12/07 00:38:06;;;;;;;48.20;22.77;;;;;;;-2.36;86.07;100065.38;1759292;81;27292;-73
2021/12/07 00:40:33;;;;;;;52.05;22.27;;;;;;;-2.36;85.95;100072.00;1757631;81;25809;-72
2021/12/07 00:43:00;;;;;;;51.18;22.60;;;;;;;-2.36;85.86;100079.15;1759322;81;25544;-74
2021/12/07 00:45:26;;;;;;;48.33;21.70;;;;;;;-2.37;85.85;100083.62;1759211;81;25525;-73
2021/12/07 00:47:55;;;;;;;45.80;20.85;;;;;;;-2.36;85.83;100088.42;1732625;81;25599;-72
2021/12/07 00:50:24;;;;;;;49.75;21.35;;;;;;;-2.36;85.88;100095.84;1759259;81;27937;-72
2021/12/07 00:52:52;;;;;;;44.20;19.82;;;;;;;-2.36;85.90;100099.02;1759306;81;28626;-72
2021/12/07 00:55:30;;;;;;;43.90;19.87;;;;;;;-2.36;85.93;100105.11;1759252;81;25460;-72
2021/12/07 00:58:00;;;;;;;38.53;18.15;;;;;;;-2.35;85.91;100098.80;1759259;81;25614;-72
2021/12/07 01:00:30;;;;;;;46.75;21.15;;;;;;;-2.33;85.92;100098.56;1759276;81;25640;-72
2021/12/07 01:02:57;;;;;;;52.08;21.45;;;;;;;-2.35;85.81;100108.06;1759240;81;27876;-71
2021/12/07 01:05:30;;;;;;;45.90;21.52;;;;;;;-2.35;85.80;100113.86;1759149;81;25629;-71
2021/12/07 01:24:44;;;;;;;44.15;20.70;;;;;;;-2.29;85.80;100101.04;1759236;81;25991;-72
2021/12/07 01:27:14;;;;;;;41.40;20.32;;;;;;;-2.29;85.82;100101.04;1757321;81;25382;-72
2021/12/07 01:29:41;;;;;;;44.40;20.57;;;;;;;-2.29;85.81;100101.84;1759195;81;27551;-72
2021/12/07 01:32:20;;;;;;;42.30;19.35;;;;;;;-2.29;85.79;100102.36;1759147;81;25612;-72
2021/12/07 01:35:25;;;;;;;45.85;20.75;;;;;;;-2.28;85.79;100106.64;1757484;81;25782;-72
2021/12/07 01:37:36;;;;;;;42.33;19.62;;;;;;;-2.29;85.66;100097.86;1755631;81;25543;-72
2021/12/07 01:45:50;;;;;;;48.33;19.57;;;;;;;-2.31;85.47;100097.81;1759338;81;25391;-72
2021/12/07 01:48:07;;;;;;;47.67;19.55;;;;;;;-2.33;85.55;100091.94;1755200;81;25596;-72
2021/12/07 01:50:47;;;;;;;42.95;19.92;;;;;;;-2.34;85.69;100092.44;1757508;81;25646;-72
2021/12/07 01:53:18;;;;;;;39.70;18.50;;;;;;;-2.33;85.73;100086.12;1756118;81;25607;-71
2021/12/07 02:00:51;;;;;;;;;;;;;;;-2.33;85.56;100089.30;1763281;81;25563;-72
2021/12/07 02:03:18;;;;;;;45.75;21.07;;;;;;;-2.31;85.68;100092.52;1759417;81;33361;-72
2021/12/07 02:05:46;;;;;;;49.23;21.75;;;;;;;-2.31;85.67;100084.57;1759259;81;25394;-72
2021/12/07 02:08:13;;;;;;;50.78;20.88;;;;;;;-2.30;85.64;100088.81;1759253;81;27285;-72
2021/12/07 02:10:41;;;;;;;46.98;22.30;;;;;;;-2.30;85.57;100088.31;1759143;81;25544;-72
2021/12/07 02:13:32;;;;;;;49.75;21.97;;;;;;;-2.30;85.50;100086.16;1732737;81;25454;-72
2021/12/07 02:15:45;;;;;;;50.65;22.60;;;;;;;-2.31;85.52;100089.87;1756152;81;25769;-72
2021/12/07 02:18:12;;;;;;;52.83;23.18;;;;;;;-2.31;85.51;100093.31;1759306;81;25641;-72
2021/12/07 02:20:39;;;;;;;52.13;21.60;;;;;;;-2.34;85.47;100095.09;1759254;81;27325;-72
2021/12/07 02:23:09;;;;;;;62.15;23.95;;;;;;;-2.32;85.59;100101.48;1759130;81;25672;-72
2021/12/07 02:25:36;;;;;;;53.63;22.55;;;;;;;-2.33;85.60;100097.24;1759216;81;25406;-72
2021/12/07 02:28:06;;;;;;;47.80;22.45;;;;;;;-2.34;85.50;100095.62;1759192;81;25461;-73
2021/12/07 02:30:31;;;;;;;49.03;22.22;;;;;;;-2.36;85.49;100094.52;1735163;81;25576;-72
2021/12/07 02:32:57;;;;;;;54.50;22.05;;;;;;;-2.35;85.46;100092.66;1759185;81;27331;-72
2021/12/07 02:35:27;;;;;;;53.80;22.48;;;;;;;-2.34;85.47;100088.99;1758940;81;25618;-72
2021/12/07 02:37:56;;;;;;;52.73;21.12;;;;;;;-2.34;85.61;100085.81;1759009;81;25510;-72
2021/12/07 02:40:23;;;;;;;53.05;22.48;;;;;;;-2.33;85.60;100090.09;1759138;81;25400;-73
2021/12/07 02:42:50;;;;;;;53.10;22.42;;;;;;;-2.32;85.64;100086.91;1759212;81;25614;-72
2021/12/07 02:45:20;;;;;;;54.60;22.35;;;;;;;-2.32;85.54;100091.69;1759129;81;27307;-72
2021/12/07 02:47:47;;;;;;;54.23;22.70;;;;;;;-2.32;85.53;100096.98;1759147;81;25942;-73
2021/12/07 02:50:16;;;;;;;60.33;23.00;;;;;;;-2.32;85.55;100094.87;1759199;81;25450;-73
2021/12/07 02:52:44;;;;;;;58.65;23.00;;;;;;;-2.32;85.47;100094.34;1759427;81;25503;-73
2021/12/07 02:55:11;;;;;;;56.05;22.67;;;;;;;-2.32;85.56;100093.02;1759237;81;25639;-72
2021/12/07 02:57:38;;;;;;;53.70;21.97;;;;;;;-2.30;85.53;100086.16;1759193;81;27909;-73
2021/12/07 03:00:16;;;;;;;56.45;21.57;;;;;;;-2.30;85.51;100087.48;1759072;81;25623;-72
2021/12/07 03:02:46;;;;;;;56.53;22.25;;;;;;;-2.30;85.50;100084.34;1735641;81;25480;-72
2021/12/07 03:05:21;;;;;;;54.93;23.10;;;;;;;-2.30;85.51;100084.34;1734832;81;25586;-72
2021/12/07 03:08:04;;;;;;;58.58;22.90;;;;;;;-2.30;85.49;100082.19;1734917;81;25420;-71
2021/12/07 03:26:32;;;;;;;65.65;25.40;;;;;;;-2.35;85.65;100076.27;1732626;81;25712;-71
2021/12/07 03:29:00;;;;;;;60.08;24.70;;;;;;;-2.34;85.74;100086.34;1759294;81;25199;-72
2021/12/07 03:31:29;;;;;;;64.07;26.00;;;;;;;-2.34;85.70;100092.97;1759252;81;25589;-72
2021/12/07 03:33:59;;;;;;;65.95;25.00;;;;;;;-2.34;85.67;100092.97;1759491;81;25564;-72
2021/12/07 03:36:28;;;;;;;63.60;25.35;;;;;;;-2.35;85.61;100090.02;1760438;81;27319;-72
2021/12/07 03:38:55;;;;;;;75.12;26.48;;;;;;;-2.37;85.52;100087.59;1761597;81;25701;-72
2021/12/07 03:41:23;;;;;;;62.03;24.15;;;;;;;-2.37;85.49;100085.47;1761434;81;25395;-72
2021/12/07 03:43:50;;;;;;;55.20;23.65;;;;;;;-2.40;85.48;100081.45;1761399;81;25455;-72
2021/12/07 03:46:17;;;;;;;65.90;24.45;;;;;;;-2.41;85.55;100077.17;1761468;81;25635;-72
2021/12/07 03:48:45;;;;;;;59.13;24.07;;;;;;;-2.40;85.63;100067.37;1761440;81;27441;-72
2021/12/07 03:51:14;;;;;;;61.95;24.57;;;;;;;-2.40;85.72;100070.03;1732390;81;25770;-72
2021/12/07 03:53:41;;;;;;;64.00;25.43;;;;;;;-2.39;85.77;100079.59;1761599;81;25572;-72
2021/12/07 03:56:09;;;;;;;61.88;26.00;;;;;;;-2.39;85.75;100088.88;1761419;81;25547;-72
2021/12/07 03:58:37;;;;;;;65.32;25.75;;;;;;;-2.38;85.79;100087.82;1761458;81;25642;-72
2021/12/07 04:01:09;;;;;;;67.90;24.00;;;;;;;-2.40;85.67;100093.38;1761395;81;27342;-72
2021/12/07 04:03:36;;;;;;;61.30;23.95;;;;;;;-2.39;85.73;100096.30;1761378;81;25452;-72
2021/12/07 04:06:06;;;;;;;63.23;26.45;;;;;;;-2.40;85.54;100106.62;1761428;81;25411;-72
2021/12/07 04:08:36;;;;;;;64.90;26.05;;;;;;;-2.41;85.54;100109.49;1761419;81;25621;-71
2021/12/07 04:11:04;;;;;;;65.67;25.20;;;;;;;-2.42;85.51;100107.34;1761474;81;25622;-71
2021/12/07 04:13:31;;;;;;;67.72;24.55;;;;;;;-2.43;85.50;100108.39;1761419;81;28035;-72
2021/12/07 04:15:58;;;;;;;65.70;25.82;;;;;;;-2.45;85.50;100110.47;1761316;81;25623;-72
2021/12/07 04:18:27;;;;;;;68.00;25.25;;;;;;;-2.45;85.61;100107.81;1761402;81;25627;-72
2021/12/07 04:20:54;;;;;;;63.60;26.07;;;;;;;-2.44;85.55;100114.70;1761611;81;25807;-72
2021/12/07 04:23:20;;;;;;;69.37;27.10;;;;;;;-2.44;85.51;100117.36;1761444;81;25477;-72
2021/12/07 04:25:47;;;;;;;63.20;24.47;;;;;;;-2.45;85.49;100119.73;1761428;81;27943;-72
2021/12/07 04:28:15;;;;;;;65.10;25.48;;;;;;;-2.47;85.44;100129.73;1735557;81;25553;-72
2021/12/07 04:30:43;;;;;;;57.70;25.40;;;;;;;-2.50;85.44;100127.03;1761400;81;25397;-72
2021/12/07 04:33:14;;;;;;;64.43;24.17;;;;;;;-2.49;85.43;100121.20;1761566;81;25586;-72
2021/12/07 04:35:45;;;;;;;58.75;24.12;;;;;;;-2.50;85.51;100123.58;1761322;81;25547;-71
2021/12/07 04:38:12;;;;;;;59.10;22.48;;;;;;;-2.52;85.46;100117.19;1760905;81;27540;-71
2021/12/07 04:40:39;;;;;;;62.90;24.80;;;;;;;-2.56;85.36;100112.55;1761303;81;25621;-71
2021/12/07 04:43:07;;;;;;;58.50;24.00;;;;;;;-2.56;85.35;100115.20;1761412;81;25501;-73
2021/12/07 04:58:34;;;;;;;52.58;21.93;;;;;;;-2.55;85.67;100133.52;1761383;81;25485;-72
2021/12/07 05:01:08;;;;;;;45.63;19.35;;;;;;;-2.53;85.49;100141.25;1761399;81;25446;-72
2021/12/07 05:03:30;;;;;;;37.35;17.00;;;;;;;-2.56;85.28;100145.14;1760713;80;27877;-72
2021/12/07 05:05:56;;;;;;;35.68;16.97;;;;;;;-2.50;85.17;100162.78;1735408;81;25564;-72
2021/12/07 05:08:43;;;;;;;34.30;15.98;;;;;;;-2.59;85.05;100146.91;1761509;81;25402;-72
2021/12/07 05:13:57;;;;;;;34.85;15.30;;;;;;;-2.65;84.78;100156.57;1761334;81;25378;-71
2021/12/07 05:16:33;;;;;;;37.78;15.75;;;;;;;-2.66;84.87;100152.81;1757927;81;27362;-71
2021/12/07 05:37:56;;;;;;;27.93;14.30;;;;;;;-2.82;84.39;100169.62;1732509;81;26031;-72
2021/12/07 05:40:28;;;;;;;26.60;13.80;;;;;;;-2.84;84.35;100161.10;1759249;81;25397;-72
2021/12/07 05:42:57;;;;;;;31.93;14.18;;;;;;;-2.85;84.40;100164.77;1759263;81;27329;-72
2021/12/07 05:45:31;;;;;;;26.80;14.25;;;;;;;-2.86;84.36;100172.93;1759094;81;25618;-72
2021/12/07 05:47:58;;;;;;;32.08;16.05;;;;;;;-2.86;84.51;100175.08;1759225;81;25667;-72
2021/12/07 05:50:28;;;;;;;31.55;14.38;;;;;;;-2.85;84.58;100174.56;1759146;81;25542;-72
2021/12/07 05:52:57;;;;;;;28.65;14.75;;;;;;;-2.86;84.44;100176.41;1759226;81;25563;-72
2021/12/07 05:55:24;;;;;;;30.52;14.45;;;;;;;-2.87;84.35;100173.45;1759161;81;27403;-72
2021/12/07 05:57:50;;;;;;;31.80;14.60;;;;;;;-2.87;84.31;100166.03;1759093;81;25526;-73
2021/12/07 06:00:26;;;;;;;32.23;14.60;;;;;;;-2.87;84.30;100166.03;1735431;81;25730;-73
2021/12/07 06:03:00;;;;;;;31.27;15.35;;;;;;;-2.88;84.38;100161.27;1759199;81;25635;-73
2021/12/07 06:05:30;;;;;;;33.42;15.15;;;;;;;-2.86;84.47;100168.46;1759268;81;25539;-73
2021/12/07 06:07:57;;;;;;;34.83;15.10;;;;;;;-2.88;84.48;100171.86;1759311;81;27328;-71
2021/12/07 06:10:24;;;;;;;29.05;15.30;;;;;;;-2.85;84.55;100171.38;1759078;81;25584;-71
2021/12/07 06:12:53;;;;;;;35.90;15.78;;;;;;;-2.85;84.52;100171.38;1759191;81;25604;-71
2021/12/07 06:15:22;;;;;;;32.05;15.38;;;;;;;-2.86;84.29;100170.28;1732323;81;26586;-71
2021/12/07 06:17:49;;;;;;;38.05;16.82;;;;;;;-2.87;84.34;100175.30;1759272;81;25752;-72
2021/12/07 06:20:18;;;;;;;41.75;17.87;;;;;;;-2.86;84.38;100175.58;1754149;81;27907;-72
2021/12/07 06:22:44;;;;;;;38.05;16.93;;;;;;;-2.87;84.31;100172.66;1710321;83;25641;-72
2021/12/07 06:25:12;;;;;;;41.95;17.70;;;;;;;-2.89;84.25;100168.91;1733187;82;25451;-72
2021/12/07 06:27:40;;;;;;;42.75;18.37;;;;;;;-2.88;84.24;100169.70;1733124;82;25596;-72
2021/12/07 06:30:09;;;;;;;43.08;18.90;;;;;;;-2.91;84.21;100166.17;1733172;82;25648;-71
2021/12/07 06:32:37;;;;;;;42.13;19.37;;;;;;;-2.91;84.24;100167.49;1733202;82;27486;-71
2021/12/07 06:35:05;;;;;;;42.73;17.17;;;;;;;-2.92;84.23;100169.87;1710310;83;25811;-71
2021/12/07 06:37:31;;;;;;;41.77;18.10;;;;;;;-2.92;84.28;100171.19;1703632;83;25722;-71
2021/12/07 06:39:58;;;;;;;48.52;18.25;;;;;;;-2.91;84.37;100177.59;1730237;82;25894;-70
2021/12/07 06:42:25;;;;;;;46.73;20.77;;;;;;;-2.90;84.41;100179.71;1705110;84;25461;-71
2021/12/07 06:44:52;;;;;;;43.63;17.87;;;;;;;-2.89;84.31;100183.98;1705134;84;27384;-71
2021/12/07 06:47:18;;;;;;;50.23;21.07;;;;;;;-2.92;84.20;100185.75;1652382;84;25795;-71
2021/12/07 06:49:45;;;;;;;48.83;22.82;;;;;;;-2.93;84.15;100188.89;1710052;81;25744;-71
2021/12/07 06:52:12;;;;;;;50.95;22.67;;;;;;;-3.01;83.91;100186.05;1699536;84;25596;-71
2021/12/07 06:54:39;;;;;;;49.35;21.73;;;;;;;-3.01;84.23;100191.86;1735000;82;25645;-71
2021/12/07 06:57:06;;;;;;;48.45;19.65;;;;;;;-3.02;84.24;100196.33;1735027;82;27364;-71
2021/12/07 06:59:33;;;;;;;44.53;19.07;;;;;;;-3.03;84.33;100191.25;1734946;82;25615;-71
2021/12/07 07:01:59;;;;;;;42.25;17.77;;;;;;;-3.01;84.45;100192.66;1723464;82;25944;-71
2021/12/07 07:04:26;;;;;;;43.55;17.37;;;;;;;-2.98;84.45;100197.21;1704790;84;25450;-71
2021/12/07 07:06:53;;;;;;;44.35;19.57;;;;;;;-2.98;84.33;100191.39;1675332;85;25575;-71
2021/12/07 07:09:19;;;;;;;44.95;19.80;;;;;;;-2.98;84.37;100193.23;1705074;84;27511;-71
2021/12/07 07:11:46;;;;;;;41.88;19.20;;;;;;;-2.98;84.40;100192.72;1675093;85;25700;-71
2021/12/07 07:14:15;;;;;;;43.68;19.52;;;;;;;-2.95;84.50;100194.13;1704994;84;26060;-71
2021/12/07 07:16:41;;;;;;;43.90;19.10;;;;;;;-2.93;84.57;100196.83;1675078;85;25407;-71
2021/12/07 07:19:08;;;;;;;57.83;24.35;;;;;;;-2.91;84.50;100204.06;1730209;82;25706;-71
2021/12/07 07:21:34;;;;;;;43.45;19.05;;;;;;;-2.89;84.54;100208.61;1730109;82;27378;-71
2021/12/07 07:24:02;;;;;;;43.75;18.60;;;;;;;-2.87;84.54;100205.22;1730024;82;25621;-71
2021/12/07 07:26:29;;;;;;;39.58;17.87;;;;;;;-2.85;84.54;100217.71;1730193;82;25690;-71
2021/12/07 07:28:56;;;;;;;45.30;18.15;;;;;;;-2.85;84.39;100214.27;1729987;82;25558;-71
2021/12/07 07:31:22;;;;;;;44.88;18.75;;;;;;;-2.84;84.36;100215.37;1730142;82;25675;-70
2021/12/07 07:33:49;;;;;;;40.65;18.37;;;;;;;-2.82;84.39;100214.63;1730148;82;27324;-70
2021/12/07 07:36:16;;;;;;;46.30;19.50;;;;;;;-2.82;84.22;100216.47;1704891;83;25734;-70
2021/12/07 07:38:42;;;;;;;41.42;19.00;;;;;;;-2.86;84.14;100220.08;1704954;82;25709;-71
2021/12/07 07:41:09;;;;;;;40.70;16.73;;;;;;;-2.83;84.24;100221.47;1674947;85;25602;-71
2021/12/07 07:43:35;;;;;;;43.00;18.75;;;;;;;-2.83;84.25;100220.97;1704936;84;25627;-71
2021/12/07 07:46:03;;;;;;;42.62;18.77;;;;;;;-2.82;84.32;100227.86;1675097;85;27315;-71
2021/12/07 07:48:30;;;;;;;43.25;19.73;;;;;;;-2.80;84.34;100225.52;1704097;84;25625;-71
2021/12/07 07:50:57;;;;;;;39.27;18.92;;;;;;;-2.78;84.41;100225.58;1673637;85;25636;-71
2021/12/07 07:53:24;;;;;;;41.92;18.45;;;;;;;-2.75;84.39;100228.31;1703596;84;25613;-71
2021/12/07 07:55:51;;;;;;;41.65;18.57;;;;;;;-2.72;84.52;100236.61;1703683;84;25406;-71
2021/12/07 07:58:19;;;;;;;40.92;17.32;;;;;;;-2.69;84.54;100234.85;1672648;84;27242;-71
2021/12/07 08:00:47;;;;;;;33.05;16.85;;;;;;;-2.66;84.62;100231.73;1673803;85;25557;-71
2021/12/07 08:03:14;;;;;;;39.00;16.62;;;;;;;-2.63;84.56;100233.14;1703702;84;25681;-71
2021/12/07 08:05:40;;;;;;;39.63;18.20;;;;;;;-2.59;84.44;100230.86;1703642;84;26189;-71
2021/12/07 08:08:08;;;;;;;38.20;17.27;;;;;;;-2.59;84.45;100235.62;1703716;84;25618;-71
2021/12/07 08:10:34;;;;;;;31.90;16.27;;;;;;;-2.56;84.48;100231.73;1673839;85;27343;-71
2021/12/07 08:13:05;;;;;;;32.98;16.12;;;;;;;-2.53;84.50;100240.56;1703586;84;25411;-71
2021/12/07 08:15:38;;;;;;;36.38;17.52;;;;;;;-2.52;84.21;100243.00;1673873;85;25475;-71
2021/12/07 08:18:06;;;;;;;37.28;17.20;;;;;;;-2.52;84.30;100249.62;1703615;84;25739;-71
2021/12/07 08:20:33;;;;;;;35.13;17.05;;;;;;;-2.48;84.21;100260.05;1673830;85;25585;-72
2021/12/07 08:23:04;;;;;;;35.83;17.00;;;;;;;-2.47;84.14;100258.20;1703623;84;27509;-72
2021/12/07 08:25:28;;;;;;;34.10;16.07;;;;;;;-2.47;83.93;100255.55;1703186;82;25746;-72
2021/12/07 08:27:56;;;;;;;30.15;16.25;;;;;;;-2.47;83.98;100255.55;1703753;84;25479;-72
2021/12/07 08:30:23;;;;;;;33.63;15.28;;;;;;;-2.45;83.98;100251.66;1673778;85;25643;-72
2021/12/07 08:32:49;;;;;;;32.85;15.48;;;;;;;-2.43;83.83;100259.39;1703701;84;25457;-72
2021/12/07 08:35:18;;;;;;;33.25;15.25;;;;;;;-2.43;83.72;100267.33;1673905;85;27927;-72
2021/12/07 08:37:47;;;;;;;34.75;16.55;;;;;;;-2.45;83.47;100260.93;1703732;83;25579;-72
2021/12/07 08:40:21;;;;;;;29.12;14.83;;;;;;;-2.45;83.42;100268.08;1673980;85;25463;-72
2021/12/07 08:42:50;;;;;;;28.47;15.68;;;;;;;-2.45;83.37;100264.91;1703753;84;25521;-73
2021/12/07 08:45:20;;;;;;;28.50;14.75;;;;;;;-2.45;83.42;100265.43;1703824;84;25640;-72
2021/12/07 08:47:47;;;;;;;28.32;15.75;;;;;;;-2.41;83.63;100263.14;1703787;84;27919;-72
2021/12/07 08:50:19;;;;;;;27.13;14.63;;;;;;;-2.37;83.77;100268.27;1672117;84;25810;-72
2021/12/07 08:52:49;;;;;;;30.23;14.68;;;;;;;-2.36;83.47;100261.95;1673878;85;25438;-72
2021/12/07 09:00:25;;;;;;;28.57;15.05;;;;;;;-2.26;83.79;100264.34;1598710;88;27336;-72
2021/12/07 09:02:52;;;;;;;28.45;15.20;;;;;;;-2.17;84.05;100268.81;1597007;88;25830;-72
2021/12/07 09:05:19;;;;;;;31.35;14.98;;;;;;;-2.14;83.71;100276.31;1618149;88;25577;-72
2021/12/07 09:07:47;;;;;;;30.60;14.87;;;;;;;-2.13;83.26;100281.09;1618121;88;25576;-72
2021/12/07 09:10:14;;;;;;;32.05;14.23;;;;;;;-2.11;83.38;100280.34;1618161;88;25545;-72
2021/12/07 09:12:41;;;;;;;25.27;14.00;;;;;;;-2.13;82.98;100279.27;1618139;88;27974;-71
2021/12/07 09:15:10;;;;;;;28.87;13.58;;;;;;;-2.14;82.83;100275.52;1618191;88;25711;-72
2021/12/07 09:17:37;;;;;;;25.75;12.50;;;;;;;-2.14;82.68;100282.14;1618294;88;25580;-72
2021/12/07 09:20:10;;;;;;;25.97;13.50;;;;;;;-2.16;82.74;100280.21;1618183;88;25624;-72
2021/12/07 09:22:37;;;;;;;24.67;12.85;;;;;;;-2.15;82.72;100283.16;1618154;88;25736;-72
2021/12/07 09:25:06;;;;;;;24.35;13.45;;;;;;;-2.16;82.88;100281.04;1618182;88;27334;-73
2021/12/07 09:27:32;;;;;;;24.92;12.23;;;;;;;-2.12;82.92;100280.07;1596991;88;25472;-73
2021/12/07 09:29:59;;;;;;;26.35;13.40;;;;;;;-2.10;82.78;100280.65;1618183;88;25627;-72
2021/12/07 09:32:25;;;;;;;25.08;12.28;;;;;;;-2.13;82.41;100285.06;1618116;88;25621;-72
2021/12/07 09:34:52;;;;;;;25.68;13.18;;;;;;;-2.15;82.30;100280.52;1618241;88;25518;-72
2021/12/07 09:37:19;;;;;;;25.88;14.00;;;;;;;-2.12;82.65;100283.52;1664354;84;27340;-70
2021/12/07 09:39:45;;;;;;;32.05;16.15;;;;;;;-2.05;82.91;100286.61;1703582;84;25611;-73
2021/12/07 09:42:12;;;;;;;26.77;13.55;;;;;;;-1.99;83.13;100280.39;1703589;84;25599;-73
2021/12/07 09:44:39;;;;;;;28.40;13.65;;;;;;;-1.96;82.85;100276.80;1703603;84;25638;-73
2021/12/07 09:47:05;;;;;;;25.77;12.45;;;;;;;-1.93;82.62;100274.19;1673826;85;25577;-72
2021/12/07 09:49:32;;;;;;;24.50;13.03;;;;;;;-1.92;82.22;100275.30;1673721;84;28016;-73
2021/12/07 09:51:59;;;;;;;25.43;12.33;;;;;;;-1.94;82.09;100269.91;1703549;84;25411;-73
2021/12/07 09:54:26;;;;;;;24.02;12.95;;;;;;;-1.94;82.05;100260.14;1673852;85;25586;-72
2021/12/07 09:56:52;;;;;;;29.27;13.08;;;;;;;-1.91;82.48;100264.16;1672178;84;25511;-72
2021/12/07 09:59:19;;;;;;;25.57;12.98;;;;;;;-1.84;82.65;100262.73;1672599;84;25634;-71
2021/12/07 10:01:45;;;;;;;23.20;11.83;;;;;;;-1.85;82.14;100259.81;1708810;83;27590;-72
2021/12/07 10:04:12;;;;;;;25.92;12.63;;;;;;;-1.88;81.94;100259.20;1728626;83;25661;-72
2021/12/07 10:06:39;;;;;;;33.67;15.75;;;;;;;-1.89;81.70;100261.59;1728762;83;25588;-72
2021/12/07 10:09:07;;;;;;;27.15;13.58;;;;;;;-1.89;81.80;100262.91;1728665;82;25640;-72
2021/12/07 10:11:34;;;;;;;26.73;13.00;;;;;;;-1.89;81.57;100260.76;1728703;83;25486;-72
2021/12/07 10:14:02;;;;;;;28.07;11.90;;;;;;;-1.92;81.42;100267.86;1728705;83;27345;-72
2021/12/07 10:16:28;;;;;;;22.77;12.82;;;;;;;-1.95;81.35;100262.48;1728639;83;25478;-72
2021/12/07 10:18:55;;;;;;;23.57;12.88;;;;;;;-1.98;81.30;100260.28;1731125;82;25563;-72
2021/12/07 10:21:27;;;;;;;21.80;11.60;;;;;;;-2.01;81.26;100258.11;1731513;82;25616;-72
2021/12/07 10:24:01;;;;;;;23.12;11.28;;;;;;;-2.02;81.21;100257.00;1731643;82;25592;-74
2021/12/07 10:26:31;;;;;;;37.65;16.17;;;;;;;-2.01;81.13;100257.28;1731542;82;27351;-72
2021/12/07 10:29:16;;;;;;;28.95;13.43;;;;;;;-2.03;81.36;100255.38;1731538;82;25659;-73
2021/12/07 10:31:51;;;;;;;28.23;14.18;;;;;;;-2.04;81.37;100255.07;1731570;82;25568;-73
2021/12/07 10:34:22;;;;;;;26.97;13.50;;;;;;;-2.03;81.42;100249.55;1731593;82;25663;-73
2021/12/07 10:36:52;;;;;;;24.85;12.98;;;;;;;-2.03;81.56;100256.70;1731631;82;25589;-73
2021/12/07 10:39:29;;;;;;;24.18;12.88;;;;;;;-2.02;81.65;100251.17;1712209;82;27333;-72
2021/12/07 10:42:04;;;;;;;25.23;12.10;;;;;;;-1.99;81.82;100250.73;1680525;84;25602;-72
2021/12/07 10:44:35;;;;;;;24.57;12.18;;;;;;;-1.94;81.78;100250.03;1704702;84;25617;-73
2021/12/07 10:47:05;;;;;;;27.82;11.95;;;;;;;-1.92;81.75;100251.95;1704746;84;26204;-72
2021/12/07 10:49:43;;;;;;;28.57;13.15;;;;;;;-1.89;81.86;100254.13;1704887;84;25628;-72
2021/12/07 10:52:20;;;;;;;32.08;12.85;;;;;;;-1.86;81.64;100251.55;1705005;84;27268;-73
2021/12/07 10:54:52;;;;;;;27.25;13.90;;;;;;;-1.84;81.68;100258.23;1724846;83;25401;-72
2021/12/07 10:57:41;;;;;;;29.55;15.35;;;;;;;-1.80;81.80;100255.44;1724831;83;25398;-72
2021/12/07 11:00:34;;;;;;;33.70;13.60;;;;;;;-1.77;81.71;100254.98;1724950;83;25692;-72
2021/12/07 11:03:10;;;;;;;32.05;13.18;;;;;;;-1.76;81.70;100253.93;1724483;83;25391;-73
2021/12/07 11:05:54;;;;;;;39.08;18.07;;;;;;;-1.73;81.48;100245.52;1724897;83;27299;-72
2021/12/07 11:08:26;;;;;;;26.52;12.65;;;;;;;-1.72;81.43;100241.02;1724738;83;25571;-71
2021/12/07 11:10:54;;;;;;;23.73;13.22;;;;;;;-1.70;81.36;100246.92;1697231;83;25427;-71
2021/12/07 11:13:27;;;;;;;22.42;11.93;;;;;;;-1.68;81.10;100245.38;1724781;83;25686;-72
2021/12/07 11:15:58;;;;;;;22.90;12.20;;;;;;;-1.72;80.98;100255.61;1724833;83;25612;-72
2021/12/07 11:18:35;;;;;;;25.12;13.13;;;;;;;-1.72;81.00;100249.80;1697289;83;27263;-71
2021/12/07 11:21:17;;;;;;;24.60;11.97;;;;;;;-1.68;81.16;100260.76;1724767;83;25473;-72
2021/12/07 11:23:49;;;;;;;28.55;12.98;;;;;;;-1.67;81.21;100253.08;1724769;83;25399;-72
2021/12/07 11:31:51;;;;;;;25.75;13.43;;;;;;;-1.59;81.02;100269.98;1724745;83;28018;-72
2021/12/07 11:34:33;;;;;;;27.27;13.95;;;;;;;-1.63;80.76;100263.53;1724896;83;25566;-71
2021/12/07 11:37:13;;;;;;;28.45;14.00;;;;;;;-1.61;80.86;100264.11;1723643;83;25618;-71
2021/12/07 11:39:49;;;;;;;29.12;13.85;;;;;;;-1.60;80.82;100267.56;1723339;83;25704;-72
2021/12/07 11:42:30;;;;;;;31.00;15.05;;;;;;;-1.64;80.42;100269.06;1722955;83;25714;-72
2021/12/07 11:45:08;;;;;;;29.32;14.45;;;;;;;-1.67;80.58;100268.19;1697238;83;27226;-71
2021/12/07 11:47:43;;;;;;;32.48;14.83;;;;;;;-1.70;80.74;100271.59;1718026;83;25396;-71
2021/12/07 11:50:32;;;;;;;32.20;16.93;;;;;;;-1.69;80.75;100276.38;1707523;84;25550;-71
2021/12/07 11:53:07;;;;;;;34.13;15.15;;;;;;;-1.65;80.77;100274.90;1705872;84;26180;-72
2021/12/07 11:55:36;;;;;;;32.45;16.35;;;;;;;-1.70;80.38;100278.75;1704467;84;25678;-72
2021/12/07 11:58:06;;;;;;;31.33;15.98;;;;;;;-1.73;80.50;100275.23;1704208;84;33134;-72
2021/12/07 12:00:41;;;;;;;29.90;15.35;;;;;;;-1.74;80.56;100278.41;1707005;84;25770;-72
2021/12/07 12:03:12;;;;;;;30.68;14.90;;;;;;;-1.78;80.59;100275.90;1678592;85;25598;-71
2021/12/07 12:05:43;;;;;;;32.35;14.60;;;;;;;-1.78;80.60;100279.08;1707466;84;25591;-71
2021/12/07 12:08:13;;;;;;;32.70;15.18;;;;;;;-1.85;80.49;100278.38;1707487;84;25534;-71
2021/12/07 12:10:44;;;;;;;29.37;14.15;;;;;;;-1.79;80.82;100286.20;1707557;84;27319;-72
2021/12/07 12:13:31;;;;;;;28.73;14.20;;;;;;;-1.77;80.71;100287.30;1697014;83;25411;-72
2021/12/07 12:16:21;;;;;;;27.60;14.33;;;;;;;-1.79;80.79;100286.73;1722951;83;25441;-72
2021/12/07 12:19:29;;;;;;;29.00;14.47;;;;;;;-1.76;80.90;100286.28;1647814;87;25595;-71
2021/12/07 12:22:19;;;;;;;29.48;14.85;;;;;;;-1.79;80.73;100285.41;1648941;87;25453;-73
2021/12/07 12:25:01;;;;;;;33.92;15.25;;;;;;;-1.76;80.78;100292.38;1648499;87;27939;-72
2021/12/07 12:27:33;;;;;;;26.85;13.70;;;;;;;-1.76;80.57;100294.23;1648879;87;25500;-72
2021/12/07 12:30:05;;;;;;;27.87;14.38;;;;;;;-1.78;80.34;100299.77;1648955;87;25594;-72
2021/12/07 12:32:36;;;;;;;28.98;14.73;;;;;;;-1.81;80.19;100302.06;1659247;85;25930;-73
2021/12/07 12:35:08;;;;;;;26.48;14.53;;;;;;;-1.83;80.26;100309.45;1669901;85;25519;-73
2021/12/07 12:37:35;;;;;;;24.92;13.30;;;;;;;-1.88;79.96;100309.59;1658872;86;27486;-72
2021/12/07 12:40:11;;;;;;;29.18;13.93;;;;;;;-1.90;80.01;100308.21;1647272;87;25848;-72
2021/12/07 12:42:51;;;;;;;26.50;13.55;;;;;;;-1.93;80.34;100305.48;1676263;85;25666;-73
2021/12/07 12:45:23;;;;;;;30.70;14.98;;;;;;;-1.95;80.13;100295.63;1677581;85;26530;-73
2021/12/07 12:48:03;;;;;;;29.92;15.63;;;;;;;-1.96;80.08;100296.67;1677808;85;25632;-73
2021/12/07 12:50:46;;;;;;;29.60;14.83;;;;;;;-1.99;80.17;100293.14;1677857;85;27892;-72